createdAt,value
2019-02-19T00:00:00.963Z,15.23
2019-02-19T00:02:28.620Z,19.13
2019-02-19T00:04:56.193Z,13.27
2019-02-19T00:07:23.779Z,14.17
2019-02-19T00:09:52.154Z,14.30
2019-02-19T00:12:19.728Z,17.53
2019-02-19T00:14:47.308Z,16.30
2019-02-19T00:17:14.928Z,20.23
2019-02-19T00:19:42.858Z,16.93
2019-02-19T00:22:10.442Z,15.10
2019-02-19T00:24:38.059Z,14.13
2019-02-19T00:27:05.655Z,15.20
2019-02-19T00:29:33.225Z,11.07
2019-02-19T00:32:00.839Z,16.87
2019-02-19T00:34:28.418Z,12.20
2019-02-19T00:36:55.999Z,12.03
2019-02-19T00:39:23.607Z,11.50
2019-02-19T00:41:51.188Z,10.50
2019-02-19T00:44:18.773Z,12.23
2019-02-19T00:46:46.773Z,10.60
2019-02-19T00:49:14.349Z,13.80
2019-02-19T00:51:42.694Z,12.23
2019-02-19T00:54:10.305Z,15.80
2019-02-19T00:56:37.891Z,15.47
2019-02-19T00:59:05.465Z,12.83
2019-02-19T01:01:33.076Z,15.20
2019-02-19T01:04:01.423Z,12.67
2019-02-19T01:06:29.010Z,12.90
2019-02-19T01:08:56.645Z,13.87
2019-02-19T01:11:24.225Z,11.93
2019-02-19T01:13:51.799Z,11.13
2019-02-19T01:16:19.421Z,15.27
2019-02-19T01:18:46.993Z,13.07
2019-02-19T01:21:14.569Z,13.33
2019-02-19T01:23:42.195Z,11.47
2019-02-19T01:26:09.786Z,13.83
2019-02-19T01:28:37.368Z,11.77
2019-02-19T01:31:05.771Z,12.63
2019-02-19T01:33:33.348Z,15.73
2019-02-19T01:36:00.948Z,14.43
2019-02-19T01:38:28.585Z,13.63
2019-02-19T01:40:56.137Z,16.03
2019-02-19T01:43:23.718Z,14.67
2019-02-19T01:45:51.336Z,16.17
2019-02-19T01:48:18.922Z,17.13
2019-02-19T01:50:46.504Z,20.30
2019-02-19T01:53:14.119Z,17.00
2019-02-19T01:55:42.472Z,15.67
2019-02-19T01:58:10.042Z,16.53
2019-02-19T02:00:37.652Z,16.50
2019-02-19T02:03:05.232Z,16.27
2019-02-19T02:05:32.808Z,15.90
2019-02-19T02:08:00.420Z,17.37
2019-02-19T02:10:27.995Z,14.43
2019-02-19T02:12:55.582Z,11.57
2019-02-19T02:15:23.229Z,14.93
2019-02-19T02:17:50.811Z,18.90
2019-02-19T02:20:18.396Z,15.80
2019-02-19T02:22:46.013Z,21.83
2019-02-19T02:25:13.593Z,21.27
2019-02-19T02:27:41.180Z,34.17
2019-02-19T02:30:08.817Z,25.03
2019-02-19T02:32:36.540Z,18.63
2019-02-19T02:35:04.874Z,15.73
2019-02-19T02:37:32.504Z,16.03
2019-02-19T02:40:00.255Z,17.40
2019-02-19T02:42:27.672Z,17.40
2019-02-19T02:44:55.277Z,18.07
2019-02-19T02:47:22.853Z,18.47
2019-02-19T02:49:50.708Z,19.00
2019-02-19T02:52:18.318Z,12.63
2019-02-19T02:54:45.894Z,15.80
2019-02-19T02:57:13.481Z,14.83
2019-02-19T02:59:41.518Z,17.47
2019-02-19T03:02:09.098Z,14.67
2019-02-19T03:04:36.693Z,11.77
2019-02-19T03:07:19.357Z,15.47
2019-02-19T03:09:46.926Z,12.93
2019-02-19T03:12:15.276Z,18.00
2019-02-19T03:14:43.160Z,18.37
2019-02-19T03:17:10.742Z,17.10
2019-02-19T03:19:39.087Z,15.13
2019-02-19T03:22:06.708Z,21.83
2019-02-19T03:24:34.293Z,17.87
2019-02-19T03:27:01.875Z,13.87
2019-02-19T03:29:29.511Z,15.13
2019-02-19T03:31:57.082Z,18.77
2019-02-19T03:34:24.659Z,16.73
2019-02-19T03:36:53.540Z,13.70
2019-02-19T03:39:21.123Z,15.73
2019-02-19T03:41:48.699Z,16.47
2019-02-19T03:44:16.314Z,14.93
2019-02-19T03:46:43.898Z,18.77
2019-02-19T03:49:11.478Z,14.87
2019-02-19T03:51:39.118Z,15.77
2019-02-19T03:54:06.697Z,20.47
2019-02-19T03:56:34.273Z,17.27
2019-02-19T03:59:02.678Z,16.63
2019-02-19T04:01:30.254Z,16.63
2019-02-19T04:03:57.837Z,16.47
2019-02-19T04:06:25.446Z,13.37
2019-02-19T04:08:53.794Z,16.37
2019-02-19T04:11:21.371Z,15.00
2019-02-19T04:13:48.993Z,14.10
2019-02-19T04:16:21.294Z,14.50
2019-02-19T04:18:44.153Z,15.50
2019-02-19T04:21:11.775Z,15.60
2019-02-19T04:23:39.373Z,17.13
2019-02-19T04:26:06.961Z,18.97
2019-02-19T04:28:34.579Z,17.43
2019-02-19T04:31:02.175Z,18.13
2019-02-19T04:33:30.531Z,19.67
2019-02-19T04:35:58.149Z,17.63
2019-02-19T04:38:25.732Z,17.93
2019-02-19T04:40:53.708Z,15.00
2019-02-19T04:43:21.336Z,15.90
2019-02-19T04:45:48.946Z,19.73
2019-02-19T04:48:16.486Z,16.50
2019-02-19T04:50:44.096Z,17.77
2019-02-19T04:53:12.464Z,14.93
2019-02-19T04:55:40.079Z,14.17
2019-02-19T04:58:07.697Z,14.77
2019-02-19T05:00:35.271Z,11.27
2019-02-19T05:03:02.857Z,14.23
2019-02-19T05:05:30.891Z,14.10
2019-02-19T05:07:58.468Z,15.10
2019-02-19T05:10:26.819Z,16.60
2019-02-19T05:12:54.445Z,17.10
2019-02-19T05:15:22.031Z,22.20
2019-02-19T05:17:49.616Z,20.53
2019-02-19T05:20:17.236Z,21.53
2019-02-19T05:22:44.846Z,21.37
2019-02-19T05:25:12.435Z,19.93
2019-02-19T05:27:40.060Z,19.97
2019-02-19T05:30:07.645Z,21.10
2019-02-19T05:32:35.234Z,20.87
2019-02-19T05:35:02.847Z,23.70
2019-02-19T05:37:30.441Z,17.50
2019-02-19T05:39:58.026Z,20.97
2019-02-19T05:42:25.640Z,16.53
2019-02-19T05:44:53.993Z,19.07
2019-02-19T05:47:21.589Z,20.17
2019-02-19T05:49:49.204Z,21.87
2019-02-19T05:52:16.798Z,19.40
2019-02-19T05:54:44.384Z,19.57
2019-02-19T05:57:12.770Z,21.20
2019-02-19T05:59:40.350Z,20.23
2019-02-19T06:02:07.938Z,20.30
2019-02-19T06:04:35.571Z,17.77
2019-02-19T06:07:03.148Z,19.90
2019-02-19T06:09:31.024Z,18.83
2019-02-19T06:11:58.664Z,17.53
2019-02-19T06:14:26.236Z,20.53
2019-02-19T06:16:58.522Z,17.90
2019-02-19T06:19:21.439Z,20.57
2019-02-19T06:21:49.025Z,18.33
2019-02-19T06:24:16.610Z,17.40
2019-02-19T06:26:44.233Z,20.30
2019-02-19T06:29:11.825Z,18.83
2019-02-19T06:31:39.406Z,17.53
2019-02-19T06:34:07.385Z,18.03
2019-02-19T06:36:34.967Z,18.23
2019-02-19T06:39:02.539Z,20.37
2019-02-19T06:41:30.151Z,20.83
2019-02-19T06:43:57.794Z,19.40
2019-02-19T06:46:25.376Z,25.90
2019-02-19T06:48:52.988Z,21.80
2019-02-19T06:51:20.565Z,21.53
2019-02-19T06:53:48.159Z,29.67
2019-02-19T06:56:15.804Z,26.97
2019-02-19T06:58:43.399Z,23.23
2019-02-19T07:01:10.978Z,20.83
2019-02-19T07:03:54.301Z,26.23
2019-02-19T07:06:22.652Z,19.43
2019-02-19T07:08:50.243Z,21.53
2019-02-19T07:11:18.636Z,25.43
2019-02-19T07:13:46.213Z,21.23
2019-02-19T07:16:13.796Z,20.37
2019-02-19T07:18:41.442Z,19.90
2019-02-19T07:21:09.026Z,23.00
2019-02-19T07:23:36.597Z,24.43
2019-02-19T07:26:04.226Z,20.00
2019-02-19T07:28:31.805Z,20.47
2019-02-19T07:30:59.411Z,23.00
2019-02-19T07:33:27.040Z,17.70
2019-02-19T07:35:54.763Z,20.93
2019-02-19T07:38:23.122Z,20.60
2019-02-19T07:40:51.804Z,21.20
2019-02-19T07:43:19.401Z,27.13
2019-02-19T07:45:46.984Z,19.40
2019-02-19T07:48:14.611Z,18.13
2019-02-19T07:50:42.957Z,20.30
2019-02-19T07:53:10.551Z,22.33
2019-02-19T07:55:39.416Z,24.67
2019-02-19T07:58:06.988Z,24.47
2019-02-19T08:00:34.575Z,19.53
2019-02-19T08:03:02.625Z,25.00
2019-02-19T08:05:30.204Z,24.17
2019-02-19T08:07:58.554Z,21.97
2019-02-19T08:10:26.201Z,28.77
2019-02-19T08:12:53.796Z,24.87
2019-02-19T08:15:21.723Z,18.97
2019-02-19T08:17:49.825Z,19.83
2019-02-19T08:20:17.402Z,22.70
2019-02-19T08:22:44.983Z,25.73
2019-02-19T08:25:12.641Z,24.90
2019-02-19T08:27:40.223Z,27.43
2019-02-19T08:30:07.805Z,31.20
2019-02-19T08:32:35.450Z,25.53
2019-02-19T08:35:03.044Z,20.60
2019-02-19T08:37:30.623Z,20.17
2019-02-19T08:39:58.584Z,23.13
2019-02-19T08:42:26.186Z,25.90
2019-02-19T08:44:53.773Z,19.63
2019-02-19T08:47:22.190Z,24.57
2019-02-19T08:49:49.767Z,23.53
2019-02-19T08:52:18.781Z,26.43
2019-02-19T08:54:45.744Z,24.87
2019-02-19T08:57:13.323Z,22.40
2019-02-19T08:59:40.903Z,23.77
2019-02-19T09:02:09.024Z,23.70
2019-02-19T09:04:36.599Z,23.73
2019-02-19T09:07:04.185Z,24.63
2019-02-19T09:09:31.808Z,25.57
2019-02-19T09:12:00.174Z,22.27
2019-02-19T09:14:27.756Z,25.93
2019-02-19T09:16:55.386Z,26.30
2019-02-19T09:19:22.976Z,26.80
2019-02-19T09:21:50.564Z,27.97
2019-02-19T09:24:18.687Z,30.53
2019-02-19T09:26:46.268Z,25.33
2019-02-19T09:29:14.617Z,21.10
2019-02-19T09:31:42.500Z,32.03
2019-02-19T09:34:10.868Z,28.35
2019-02-19T09:36:38.462Z,27.73
2019-02-19T09:39:06.334Z,31.98
2019-02-19T09:41:33.919Z,24.83
2019-02-19T09:44:01.510Z,22.57
2019-02-19T09:46:29.154Z,22.90
2019-02-19T09:48:56.743Z,26.07
2019-02-19T09:51:24.331Z,21.00
2019-02-19T09:53:52.732Z,20.97
2019-02-19T09:56:20.311Z,21.33
2019-02-19T09:58:47.892Z,22.43
2019-02-19T10:01:15.980Z,19.57
2019-02-19T10:03:43.578Z,21.90
2019-02-19T10:06:11.176Z,23.33
2019-02-19T10:08:39.156Z,23.60
2019-02-19T10:11:06.731Z,26.60
2019-02-19T10:13:34.312Z,21.57
2019-02-19T10:16:02.700Z,18.43
2019-02-19T10:18:31.053Z,15.77
2019-02-19T10:20:59.782Z,18.40
2019-02-19T10:23:26.298Z,15.20
2019-02-19T10:25:53.896Z,13.87
2019-02-19T10:28:21.507Z,20.60
2019-02-19T10:30:49.208Z,13.63
2019-02-19T10:33:16.806Z,16.53
2019-02-19T10:35:44.388Z,13.20
2019-02-19T10:38:12.051Z,12.10
2019-02-19T10:40:40.004Z,12.63
2019-02-19T10:43:07.588Z,11.60
2019-02-19T10:45:35.576Z,13.53
2019-02-19T10:48:03.165Z,10.03
2019-02-19T10:50:30.745Z,13.13
2019-02-19T10:52:58.447Z,10.03
2019-02-19T10:55:25.978Z,12.57
2019-02-19T10:57:53.566Z,8.57
2019-02-19T11:00:21.209Z,9.37
2019-02-19T11:02:48.764Z,8.53
2019-02-19T11:05:16.340Z,8.77
2019-02-19T11:07:43.964Z,7.20
2019-02-19T11:10:14.115Z,9.70
2019-02-19T11:12:41.697Z,9.73
2019-02-19T11:15:10.496Z,6.50
2019-02-19T11:17:38.090Z,8.37
2019-02-19T11:20:20.511Z,7.93
2019-02-19T11:22:48.429Z,7.93
2019-02-19T11:25:15.999Z,6.90
2019-02-19T11:27:43.705Z,7.07
2019-02-19T11:30:17.220Z,9.10
2019-02-19T11:32:44.810Z,8.50
2019-02-19T11:35:12.471Z,12.30
2019-02-19T11:37:40.061Z,8.53
2019-02-19T11:40:08.410Z,6.67
2019-02-19T11:42:36.137Z,8.27
2019-02-19T11:45:03.738Z,9.53
2019-02-19T11:47:31.318Z,8.17
2019-02-19T11:49:59.804Z,7.00
2019-02-19T11:52:27.416Z,14.13
2019-02-19T11:54:54.994Z,8.27
2019-02-19T11:57:22.609Z,7.77
2019-02-19T11:59:50.981Z,6.67
2019-02-19T12:02:19.324Z,9.87
2019-02-19T12:04:46.981Z,9.13
2019-02-19T12:07:14.953Z,9.10
2019-02-19T12:09:42.537Z,9.70
2019-02-19T12:12:10.222Z,7.90
2019-02-19T12:14:38.572Z,8.37
2019-02-19T12:17:06.167Z,8.70
2019-02-19T12:19:34.575Z,8.90
2019-02-19T12:22:02.153Z,8.50
2019-02-19T12:24:29.731Z,7.40
2019-02-19T12:26:58.230Z,6.80
2019-02-19T12:29:25.816Z,10.13
2019-02-19T12:31:53.402Z,9.47
2019-02-19T12:34:22.118Z,7.73
2019-02-19T12:36:49.702Z,7.53
2019-02-19T12:39:17.280Z,7.93
2019-02-19T12:41:44.906Z,9.93
2019-02-19T12:44:12.546Z,10.97
2019-02-19T12:46:40.119Z,9.60
2019-02-19T12:49:07.745Z,10.87
2019-02-19T12:51:36.566Z,10.97
2019-02-19T12:54:04.178Z,8.30
2019-02-19T12:56:31.828Z,8.70
2019-02-19T12:58:59.412Z,7.33
2019-02-19T13:01:27.777Z,10.43
2019-02-19T13:03:55.941Z,9.83
2019-02-19T13:06:23.519Z,11.37
2019-02-19T13:08:51.865Z,7.33
2019-02-19T13:11:19.499Z,7.70
2019-02-19T13:13:47.095Z,10.37
2019-02-19T13:16:14.671Z,8.57
2019-02-19T13:18:42.298Z,10.70
2019-02-19T13:21:09.888Z,11.70
2019-02-19T13:23:37.474Z,6.93
2019-02-19T13:26:05.891Z,8.00
2019-02-19T13:28:33.468Z,8.57
2019-02-19T13:31:01.043Z,7.43
2019-02-19T13:33:28.667Z,8.20
2019-02-19T13:35:56.257Z,11.53
2019-02-19T13:38:23.838Z,6.87
2019-02-19T13:40:51.502Z,5.47
2019-02-19T13:43:19.079Z,8.97
2019-02-19T13:45:46.664Z,8.27
2019-02-19T13:48:15.063Z,11.83
2019-02-19T13:50:42.956Z,9.10
2019-02-19T13:53:14.151Z,8.17
2019-02-19T13:55:42.920Z,6.90
2019-02-19T13:58:10.494Z,8.47
2019-02-19T14:00:40.849Z,7.83
2019-02-19T14:03:08.472Z,7.37
2019-02-19T14:05:36.047Z,8.10
2019-02-19T14:08:04.393Z,8.03
2019-02-19T14:10:32.939Z,8.20
2019-02-19T14:13:00.497Z,12.43
2019-02-19T14:15:44.100Z,12.87
2019-02-19T14:18:11.682Z,6.20
2019-02-19T14:20:39.258Z,9.20
2019-02-19T14:23:09.630Z,8.30
2019-02-19T14:25:51.975Z,7.90
2019-02-19T14:28:22.987Z,11.68
2019-02-19T14:30:56.279Z,9.20
2019-02-19T14:33:29.802Z,7.87
2019-02-19T14:35:58.157Z,7.12
2019-02-19T14:38:43.944Z,6.47
2019-02-19T14:41:14.101Z,8.32
2019-02-19T14:43:47.713Z,7.53
2019-02-19T14:46:33.213Z,7.20
2019-02-19T14:49:18.794Z,11.57
2019-02-19T14:51:55.392Z,9.73
2019-02-19T14:54:26.101Z,10.33
2019-02-19T14:56:53.692Z,6.50
2019-02-19T14:59:23.895Z,5.47
2019-02-19T15:01:51.522Z,7.97
2019-02-19T15:04:21.920Z,8.30
2019-02-19T15:06:52.177Z,10.07
2019-02-19T15:09:37.847Z,8.87
2019-02-19T15:12:17.486Z,8.73
2019-02-19T15:14:53.796Z,8.32
2019-02-19T15:17:33.276Z,8.95
2019-02-19T15:20:00.902Z,12.60
2019-02-19T15:22:31.761Z,9.13
2019-02-19T15:25:11.299Z,7.60
2019-02-19T15:27:41.422Z,6.07
2019-02-19T15:30:09.030Z,7.60
2019-02-19T15:32:44.124Z,9.67
2019-02-19T15:35:30.038Z,9.20
2019-02-19T15:38:00.181Z,8.30
2019-02-19T15:40:40.464Z,8.67
2019-02-19T15:43:26.614Z,6.87
2019-02-19T15:46:09.189Z,10.27
2019-02-19T15:48:42.343Z,7.63
2019-02-19T15:51:27.845Z,9.87
2019-02-19T15:53:55.465Z,7.67
2019-02-19T15:56:25.588Z,10.90
2019-02-19T15:59:12.422Z,6.83
2019-02-19T16:01:58.576Z,6.73
2019-02-19T16:04:44.414Z,7.17
2019-02-19T16:07:14.573Z,7.60
2019-02-19T16:09:42.894Z,9.37
2019-02-19T16:12:19.466Z,5.23
2019-02-19T16:14:49.966Z,7.17
2019-02-19T16:17:35.868Z,9.60
2019-02-19T16:20:05.926Z,5.27
2019-02-19T16:22:52.924Z,4.67
2019-02-19T16:25:29.503Z,7.60
2019-02-19T16:27:57.158Z,8.23
2019-02-19T16:30:27.210Z,6.67
2019-02-19T16:32:54.793Z,9.95
2019-02-19T16:35:22.429Z,8.87
2019-02-19T16:38:07.848Z,8.70
2019-02-19T16:40:53.499Z,8.53
2019-02-19T16:43:21.902Z,8.97
2019-02-19T16:45:55.217Z,9.20
2019-02-19T16:48:31.708Z,7.03
2019-02-19T16:50:59.296Z,9.50
2019-02-19T16:53:41.823Z,10.27
2019-02-19T16:56:12.196Z,10.17
2019-02-19T16:58:45.653Z,10.57
2019-02-19T17:01:31.403Z,10.63
2019-02-19T17:04:04.692Z,8.77
2019-02-19T17:06:38.426Z,9.02
2019-02-19T17:09:09.594Z,9.07
2019-02-19T17:11:42.810Z,8.03
2019-02-19T17:14:10.397Z,7.93
2019-02-19T17:16:53.382Z,9.13
2019-02-19T17:19:23.687Z,6.20
2019-02-19T17:22:03.292Z,6.23
2019-02-19T17:24:36.852Z,6.03
2019-02-19T17:27:04.421Z,8.30
2019-02-19T17:29:32.121Z,6.53
2019-02-19T17:32:02.359Z,12.60
2019-02-19T17:34:30.726Z,7.40
2019-02-19T17:37:17.029Z,14.77
2019-02-19T17:39:47.453Z,10.97
2019-02-19T17:42:33.118Z,10.07
2019-02-19T17:45:06.418Z,9.10
2019-02-19T17:47:52.111Z,6.70
2019-02-19T17:50:38.722Z,10.10
2019-02-19T17:53:14.914Z,9.27
2019-02-19T17:55:56.603Z,11.13
2019-02-19T17:58:27.683Z,7.73
2019-02-19T18:01:13.393Z,8.63
2019-02-19T18:03:55.995Z,12.43
2019-02-19T18:06:32.467Z,16.20
2019-02-19T18:09:00.123Z,9.77
2019-02-19T18:11:46.000Z,14.43
2019-02-19T18:14:31.835Z,11.40
2019-02-19T18:17:02.154Z,10.17
2019-02-19T18:19:29.694Z,10.23
2019-02-19T18:21:57.348Z,7.50
2019-02-19T18:24:24.930Z,8.40
2019-02-19T18:26:52.504Z,15.23
2019-02-19T18:29:20.163Z,18.77
2019-02-19T18:31:47.743Z,12.10
2019-02-19T18:34:15.332Z,20.08
2019-02-19T18:36:43.324Z,12.40
2019-02-19T18:39:11.472Z,17.30
2019-02-19T18:41:40.095Z,17.90
2019-02-19T18:44:08.102Z,17.57
2019-02-19T18:46:35.685Z,12.40
2019-02-19T18:49:04.039Z,11.30
2019-02-19T18:51:32.055Z,9.43
2019-02-19T18:53:59.581Z,9.10
2019-02-19T18:56:27.162Z,10.77
2019-02-19T18:58:55.545Z,9.17
2019-02-19T19:01:23.119Z,10.17
2019-02-19T19:03:50.693Z,8.13
2019-02-19T19:06:18.421Z,14.63
2019-02-19T19:08:46.663Z,11.10
2019-02-19T19:11:14.253Z,20.60
2019-02-19T19:13:41.925Z,16.83
2019-02-19T19:16:10.281Z,15.57
2019-02-19T19:18:37.884Z,17.97
2019-02-19T19:21:07.821Z,17.23
2019-02-19T19:23:33.367Z,19.23
2019-02-19T19:26:00.953Z,18.33
2019-02-19T19:28:29.353Z,15.07
2019-02-19T19:30:56.940Z,14.97
2019-02-19T19:33:24.530Z,16.08
2019-02-19T19:35:53.447Z,15.20
2019-02-19T19:38:21.037Z,12.73
2019-02-19T19:40:48.632Z,14.63
2019-02-19T19:43:16.256Z,12.40
2019-02-19T19:45:44.609Z,16.40
2019-02-19T19:48:12.182Z,23.37
2019-02-19T19:50:40.570Z,12.57
2019-02-19T19:53:08.933Z,12.60
2019-02-19T19:55:36.512Z,16.13
2019-02-19T19:58:05.488Z,16.27
2019-02-19T20:00:33.162Z,12.67
2019-02-19T20:03:00.674Z,16.80
2019-02-19T20:05:28.299Z,13.10
2019-02-19T20:07:55.878Z,13.70
2019-02-19T20:10:23.462Z,14.63
2019-02-19T20:12:51.666Z,15.23
2019-02-19T20:15:19.258Z,14.63
2019-02-19T20:17:47.181Z,17.37
2019-02-19T20:20:14.785Z,15.60
2019-02-19T20:22:42.378Z,16.73
2019-02-19T20:25:09.970Z,15.03
2019-02-19T20:27:37.631Z,16.57
2019-02-19T20:30:07.687Z,16.70
2019-02-19T20:32:35.268Z,14.68
2019-02-19T20:35:02.961Z,14.33
2019-02-19T20:37:30.519Z,15.87
2019-02-19T20:39:58.092Z,15.23
2019-02-19T20:42:25.714Z,15.67
2019-02-19T20:44:53.617Z,12.77
2019-02-19T20:47:21.194Z,17.97
2019-02-19T20:49:48.823Z,23.73
2019-02-19T20:52:16.401Z,15.40
2019-02-19T20:54:44.037Z,14.73
2019-02-19T20:57:13.367Z,12.70
2019-02-19T20:59:40.947Z,11.73
2019-02-19T21:02:08.532Z,17.63
2019-02-19T21:04:36.160Z,12.47
2019-02-19T21:07:03.747Z,12.53
2019-02-19T21:09:31.323Z,19.33
2019-02-19T21:12:00.195Z,14.23
2019-02-19T21:14:27.769Z,13.83
2019-02-19T21:16:56.115Z,15.90
2019-02-19T21:19:23.796Z,13.20
2019-02-19T21:21:51.382Z,19.43
2019-02-19T21:24:18.959Z,16.23
2019-02-19T21:26:46.572Z,17.90
2019-02-19T21:29:14.157Z,15.07
2019-02-19T21:31:41.729Z,21.70
2019-02-19T21:34:10.397Z,17.33
2019-02-19T21:36:37.973Z,22.67
2019-02-19T21:39:06.327Z,31.47
2019-02-19T21:41:33.970Z,33.57
2019-02-19T21:44:01.555Z,22.97
2019-02-19T21:46:29.706Z,19.23
2019-02-19T21:48:57.315Z,17.57
2019-02-19T21:51:25.662Z,21.60
2019-02-19T21:53:53.252Z,21.23
2019-02-19T21:56:21.184Z,22.00
2019-02-19T21:58:48.761Z,22.97
2019-02-19T22:01:16.344Z,17.83
2019-02-19T22:03:44.021Z,17.97
2019-02-19T22:06:12.756Z,15.73
2019-02-19T22:08:40.343Z,17.47
2019-02-19T22:11:07.950Z,13.53
2019-02-19T22:13:35.564Z,20.60
2019-02-19T22:16:03.152Z,13.30
2019-02-19T22:18:30.769Z,15.20
2019-02-19T22:21:01.086Z,14.97
2019-02-19T22:23:28.680Z,13.93
2019-02-19T22:25:56.344Z,17.13
2019-02-19T22:28:24.001Z,20.42
2019-02-19T22:30:51.575Z,16.90
2019-02-19T22:33:19.218Z,20.90
2019-02-19T22:35:46.819Z,18.90
2019-02-19T22:38:14.397Z,13.90
2019-02-19T22:40:42.006Z,14.93
2019-02-19T22:43:09.599Z,18.87
2019-02-19T22:45:37.952Z,15.23
2019-02-19T22:48:05.580Z,15.60
2019-02-19T22:50:33.447Z,17.43
2019-02-19T22:53:01.034Z,15.87
2019-02-19T22:55:46.664Z,18.77
2019-02-19T22:58:15.003Z,16.37
2019-02-19T23:00:48.284Z,12.10
2019-02-19T23:03:16.372Z,14.70
2019-02-19T23:05:43.953Z,16.90
2019-02-19T23:08:11.527Z,16.87
2019-02-19T23:10:39.154Z,20.40
2019-02-19T23:13:06.731Z,18.90
2019-02-19T23:15:34.326Z,14.37
2019-02-19T23:18:01.971Z,17.83
2019-02-19T23:20:29.554Z,19.60
2019-02-19T23:22:57.139Z,14.77
2019-02-19T23:25:24.778Z,19.10
2019-02-19T23:27:52.374Z,16.17
2019-02-19T23:30:19.975Z,16.30
2019-02-19T23:32:47.564Z,18.50
2019-02-19T23:35:20.887Z,20.10
2019-02-19T23:37:48.465Z,18.47
2019-02-19T23:40:16.074Z,14.57
2019-02-19T23:42:43.657Z,18.03
2019-02-19T23:45:11.237Z,14.77
2019-02-19T23:47:38.863Z,15.63
2019-02-19T23:50:06.447Z,19.27
2019-02-19T23:52:34.018Z,14.53
2019-02-19T23:55:01.642Z,14.40
2019-02-19T23:57:29.987Z,16.27
2019-02-19T23:59:57.564Z,14.97
